sensor_id;sensor_type;location;lat;lon;timestamp;P1;durP1;ratioP1;P2;durP2;ratioP2
20298;SDS011;10308;42.688;23.256;2023-03-03T00:01:22;3.58;;;3.28;;
20298;SDS011;10308;42.688;23.256;2023-03-03T00:03:49;3.00;;;2.80;;
20298;SDS011;10308;42.688;23.256;2023-03-03T00:06:16;2.88;;;2.67;;
20298;SDS011;10308;42.688;23.256;2023-03-03T00:08:43;3.35;;;3.15;;
20298;SDS011;10308;42.688;23.256;2023-03-03T00:11:10;3.03;;;2.83;;
20298;SDS011;10308;42.688;23.256;2023-03-03T00:13:42;2.70;;;2.50;;
20298;SDS011;10308;42.688;23.256;2023-03-03T00:16:15;3.05;;;2.85;;
20298;SDS011;10308;42.688;23.256;2023-03-03T00:18:49;2.83;;;2.63;;
20298;SDS011;10308;42.688;23.256;2023-03-03T00:21:24;2.95;;;2.75;;
20298;SDS011;10308;42.688;23.256;2023-03-03T00:23:53;3.00;;;2.80;;
20298;SDS011;10308;42.688;23.256;2023-03-03T00:26:21;3.38;;;3.17;;
20298;SDS011;10308;42.688;23.256;2023-03-03T00:28:50;3.63;;;2.97;;
20298;SDS011;10308;42.688;23.256;2023-03-03T00:31:19;3.00;;;2.80;;
20298;SDS011;10308;42.688;23.256;2023-03-03T00:33:47;3.13;;;2.92;;
20298;SDS011;10308;42.688;23.256;2023-03-03T00:39:10;3.50;;;3.20;;
20298;SDS011;10308;42.688;23.256;2023-03-03T00:41:44;3.70;;;3.40;;
20298;SDS011;10308;42.688;23.256;2023-03-03T00:44:28;3.70;;;3.40;;
20298;SDS011;10308;42.688;23.256;2023-03-03T00:46:59;4.00;;;3.70;;
20298;SDS011;10308;42.688;23.256;2023-03-03T00:49:28;4.32;;;4.03;;
20298;SDS011;10308;42.688;23.256;2023-03-03T00:51:55;4.80;;;4.40;;
20298;SDS011;10308;42.688;23.256;2023-03-03T00:54:22;4.03;;;3.72;;
20298;SDS011;10308;42.688;23.256;2023-03-03T00:56:48;4.40;;;4.10;;
20298;SDS011;10308;42.688;23.256;2023-03-03T00:59:15;4.32;;;4.03;;
20298;SDS011;10308;42.688;23.256;2023-03-03T01:01:43;4.10;;;3.80;;
20298;SDS011;10308;42.688;23.256;2023-03-03T01:04:10;4.45;;;4.15;;
20298;SDS011;10308;42.688;23.256;2023-03-03T01:06:37;4.20;;;3.83;;
20298;SDS011;10308;42.688;23.256;2023-03-03T01:09:03;3.72;;;3.45;;
20298;SDS011;10308;42.688;23.256;2023-03-03T01:11:30;4.15;;;3.85;;
20298;SDS011;10308;42.688;23.256;2023-03-03T01:13:57;4.95;;;4.65;;
20298;SDS011;10308;42.688;23.256;2023-03-03T01:16:23;3.83;;;3.53;;
20298;SDS011;10308;42.688;23.256;2023-03-03T01:18:52;4.22;;;3.92;;
20298;SDS011;10308;42.688;23.256;2023-03-03T01:21:18;3.80;;;3.58;;
20298;SDS011;10308;42.688;23.256;2023-03-03T01:23:45;4.20;;;3.90;;
20298;SDS011;10308;42.688;23.256;2023-03-03T01:26:12;4.05;;;3.75;;
20298;SDS011;10308;42.688;23.256;2023-03-03T01:28:39;4.03;;;3.72;;
20298;SDS011;10308;42.688;23.256;2023-03-03T01:31:05;4.38;;;4.07;;
20298;SDS011;10308;42.688;23.256;2023-03-03T01:33:32;4.30;;;4.00;;
20298;SDS011;10308;42.688;23.256;2023-03-03T01:36:02;4.40;;;4.05;;
20298;SDS011;10308;42.688;23.256;2023-03-03T01:38:29;4.28;;;3.97;;
20298;SDS011;10308;42.688;23.256;2023-03-03T01:40:57;4.88;;;4.50;;
20298;SDS011;10308;42.688;23.256;2023-03-03T01:43:25;4.65;;;4.30;;
20298;SDS011;10308;42.688;23.256;2023-03-03T01:49:00;4.50;;;4.20;;
20298;SDS011;10308;42.688;23.256;2023-03-03T01:51:31;4.80;;;4.50;;
20298;SDS011;10308;42.688;23.256;2023-03-03T01:54:00;4.50;;;4.20;;
20298;SDS011;10308;42.688;23.256;2023-03-03T01:56:28;4.50;;;4.10;;
20298;SDS011;10308;42.688;23.256;2023-03-03T01:58:56;4.65;;;4.25;;
20298;SDS011;10308;42.688;23.256;2023-03-03T02:01:25;4.30;;;4.00;;
20298;SDS011;10308;42.688;23.256;2023-03-03T02:03:53;4.68;;;4.32;;
20298;SDS011;10308;42.688;23.256;2023-03-03T02:06:21;4.70;;;4.30;;
20298;SDS011;10308;42.688;23.256;2023-03-03T02:08:52;4.20;;;3.90;;
20298;SDS011;10308;42.688;23.256;2023-03-03T02:11:23;4.30;;;4.00;;
20298;SDS011;10308;42.688;23.256;2023-03-03T02:13:51;4.60;;;4.30;;
20298;SDS011;10308;42.688;23.256;2023-03-03T02:16:18;4.20;;;3.90;;
20298;SDS011;10308;42.688;23.256;2023-03-03T02:18:45;4.22;;;3.92;;
20298;SDS011;10308;42.688;23.256;2023-03-03T02:21:13;4.65;;;4.35;;
20298;SDS011;10308;42.688;23.256;2023-03-03T02:23:42;4.50;;;4.20;;
20298;SDS011;10308;42.688;23.256;2023-03-03T02:26:18;4.60;;;4.20;;
20298;SDS011;10308;42.688;23.256;2023-03-03T02:28:48;4.53;;;4.13;;
20298;SDS011;10308;42.688;23.256;2023-03-03T02:31:16;4.30;;;4.00;;
20298;SDS011;10308;42.688;23.256;2023-03-03T02:33:46;3.95;;;3.65;;
20298;SDS011;10308;42.688;23.256;2023-03-03T02:36:15;3.45;;;3.25;;
20298;SDS011;10308;42.688;23.256;2023-03-03T02:38:45;3.85;;;3.55;;
20298;SDS011;10308;42.688;23.256;2023-03-03T02:41:15;3.97;;;3.67;;
20298;SDS011;10308;42.688;23.256;2023-03-03T02:43:49;3.95;;;3.63;;
20298;SDS011;10308;42.688;23.256;2023-03-03T02:46:22;4.07;;;3.78;;
20298;SDS011;10308;42.688;23.256;2023-03-03T02:48:48;3.72;;;3.42;;
20298;SDS011;10308;42.688;23.256;2023-03-03T02:51:15;3.63;;;3.42;;
20298;SDS011;10308;42.688;23.256;2023-03-03T02:53:42;3.75;;;3.45;;
20298;SDS011;10308;42.688;23.256;2023-03-03T02:56:09;3.90;;;3.60;;
20298;SDS011;10308;42.688;23.256;2023-03-03T02:58:37;3.70;;;3.50;;
20298;SDS011;10308;42.688;23.256;2023-03-03T03:01:04;3.50;;;3.30;;
20298;SDS011;10308;42.688;23.256;2023-03-03T03:03:30;4.03;;;3.80;;
20298;SDS011;10308;42.688;23.256;2023-03-03T03:05:57;3.60;;;3.40;;
20298;SDS011;10308;42.688;23.256;2023-03-03T03:08:24;3.75;;;3.45;;
20298;SDS011;10308;42.688;23.256;2023-03-03T03:10:51;3.92;;;3.65;;
20298;SDS011;10308;42.688;23.256;2023-03-03T03:13:18;4.10;;;3.80;;
20298;SDS011;10308;42.688;23.256;2023-03-03T03:15:46;4.30;;;4.00;;
20298;SDS011;10308;42.688;23.256;2023-03-03T03:18:13;4.13;;;3.83;;
20298;SDS011;10308;42.688;23.256;2023-03-03T03:20:40;4.10;;;3.80;;
20298;SDS011;10308;42.688;23.256;2023-03-03T03:23:07;3.63;;;3.42;;
20298;SDS011;10308;42.688;23.256;2023-03-03T03:25:34;4.10;;;3.80;;
20298;SDS011;10308;42.688;23.256;2023-03-03T03:28:06;4.22;;;3.92;;
20298;SDS011;10308;42.688;23.256;2023-03-03T03:30:34;4.10;;;3.90;;
20298;SDS011;10308;42.688;23.256;2023-03-03T03:33:02;4.45;;;4.15;;
20298;SDS011;10308;42.688;23.256;2023-03-03T03:35:29;4.43;;;4.03;;
20298;SDS011;10308;42.688;23.256;2023-03-03T03:37:57;4.32;;;4.03;;
20298;SDS011;10308;42.688;23.256;2023-03-03T03:40:24;4.63;;;4.28;;
20298;SDS011;10308;42.688;23.256;2023-03-03T03:42:50;4.72;;;4.38;;
20298;SDS011;10308;42.688;23.256;2023-03-03T03:45:17;4.65;;;4.25;;
20298;SDS011;10308;42.688;23.256;2023-03-03T03:47:44;4.63;;;4.32;;
20298;SDS011;10308;42.688;23.256;2023-03-03T03:50:12;4.95;;;4.55;;
20298;SDS011;10308;42.688;23.256;2023-03-03T03:52:39;4.95;;;4.57;;
20298;SDS011;10308;42.688;23.256;2023-03-03T03:55:08;4.75;;;4.45;;
20298;SDS011;10308;42.688;23.256;2023-03-03T03:57:35;5.10;;;4.70;;
20298;SDS011;10308;42.688;23.256;2023-03-03T04:00:02;5.70;;;5.30;;
20298;SDS011;10308;42.688;23.256;2023-03-03T04:02:29;6.10;;;5.60;;
20298;SDS011;10308;42.688;23.256;2023-03-03T04:04:56;5.78;;;5.38;;
20298;SDS011;10308;42.688;23.256;2023-03-03T04:07:24;5.95;;;5.55;;
20298;SDS011;10308;42.688;23.256;2023-03-03T04:09:51;6.00;;;5.35;;
20298;SDS011;10308;42.688;23.256;2023-03-03T04:12:19;6.00;;;5.50;;
20298;SDS011;10308;42.688;23.256;2023-03-03T04:14:46;8.13;;;7.32;;
20298;SDS011;10308;42.688;23.256;2023-03-03T04:17:33;6.20;;;5.70;;
20298;SDS011;10308;42.688;23.256;2023-03-03T04:20:00;6.10;;;5.68;;
20298;SDS011;10308;42.688;23.256;2023-03-03T04:22:29;6.22;;;5.72;;
20298;SDS011;10308;42.688;23.256;2023-03-03T04:24:58;6.38;;;5.88;;
20298;SDS011;10308;42.688;23.256;2023-03-03T04:27:24;6.15;;;5.65;;
20298;SDS011;10308;42.688;23.256;2023-03-03T04:29:51;6.28;;;5.78;;
20298;SDS011;10308;42.688;23.256;2023-03-03T04:32:18;6.28;;;5.78;;
20298;SDS011;10308;42.688;23.256;2023-03-03T04:34:45;6.35;;;5.85;;
20298;SDS011;10308;42.688;23.256;2023-03-03T04:37:11;6.55;;;6.05;;
20298;SDS011;10308;42.688;23.256;2023-03-03T04:39:39;6.40;;;5.90;;
20298;SDS011;10308;42.688;23.256;2023-03-03T04:42:06;6.60;;;6.10;;
20298;SDS011;10308;42.688;23.256;2023-03-03T04:44:33;6.82;;;6.22;;
20298;SDS011;10308;42.688;23.256;2023-03-03T04:47:00;6.70;;;6.20;;
20298;SDS011;10308;42.688;23.256;2023-03-03T04:49:26;6.90;;;6.32;;
20298;SDS011;10308;42.688;23.256;2023-03-03T04:51:53;7.05;;;6.50;;
20298;SDS011;10308;42.688;23.256;2023-03-03T04:54:20;7.05;;;6.53;;
20298;SDS011;10308;42.688;23.256;2023-03-03T04:56:48;6.95;;;6.45;;
20298;SDS011;10308;42.688;23.256;2023-03-03T04:59:15;7.00;;;6.40;;
20298;SDS011;10308;42.688;23.256;2023-03-03T05:01:42;7.60;;;7.00;;
20298;SDS011;10308;42.688;23.256;2023-03-03T05:04:10;7.32;;;6.72;;
20298;SDS011;10308;42.688;23.256;2023-03-03T05:06:37;6.60;;;6.10;;
20298;SDS011;10308;42.688;23.256;2023-03-03T05:09:05;7.05;;;6.55;;
20298;SDS011;10308;42.688;23.256;2023-03-03T05:11:31;7.20;;;6.60;;
20298;SDS011;10308;42.688;23.256;2023-03-03T05:14:00;6.72;;;6.22;;
20298;SDS011;10308;42.688;23.256;2023-03-03T05:16:27;6.50;;;6.00;;
20298;SDS011;10308;42.688;23.256;2023-03-03T05:18:54;6.70;;;6.20;;
20298;SDS011;10308;42.688;23.256;2023-03-03T05:21:20;7.32;;;6.63;;
20298;SDS011;10308;42.688;23.256;2023-03-03T05:23:47;6.88;;;6.38;;
20298;SDS011;10308;42.688;23.256;2023-03-03T05:26:14;7.22;;;6.63;;
20298;SDS011;10308;42.688;23.256;2023-03-03T05:28:41;6.90;;;6.40;;
20298;SDS011;10308;42.688;23.256;2023-03-03T05:31:09;7.53;;;6.93;;
20298;SDS011;10308;42.688;23.256;2023-03-03T05:33:35;7.57;;;6.97;;
20298;SDS011;10308;42.688;23.256;2023-03-03T05:36:02;7.22;;;6.63;;
20298;SDS011;10308;42.688;23.256;2023-03-03T05:38:29;7.10;;;6.53;;
20298;SDS011;10308;42.688;23.256;2023-03-03T05:40:56;7.10;;;6.50;;
20298;SDS011;10308;42.688;23.256;2023-03-03T05:43:23;7.72;;;7.13;;
20298;SDS011;10308;42.688;23.256;2023-03-03T05:45:53;7.22;;;6.63;;
20298;SDS011;10308;42.688;23.256;2023-03-03T05:48:21;7.15;;;6.55;;
20298;SDS011;10308;42.688;23.256;2023-03-03T05:50:48;7.57;;;6.88;;
20298;SDS011;10308;42.688;23.256;2023-03-03T05:53:15;7.60;;;6.97;;
20298;SDS011;10308;42.688;23.256;2023-03-03T05:55:42;7.60;;;6.90;;
20298;SDS011;10308;42.688;23.256;2023-03-03T05:58:08;8.02;;;7.35;;
20298;SDS011;10308;42.688;23.256;2023-03-03T06:00:36;8.18;;;7.47;;
20298;SDS011;10308;42.688;23.256;2023-03-03T06:03:02;8.13;;;7.40;;
20298;SDS011;10308;42.688;23.256;2023-03-03T06:05:31;7.53;;;6.93;;
20298;SDS011;10308;42.688;23.256;2023-03-03T06:07:57;7.80;;;7.20;;
20298;SDS011;10308;42.688;23.256;2023-03-03T06:10:25;8.20;;;7.50;;
20298;SDS011;10308;42.688;23.256;2023-03-03T06:12:52;8.32;;;7.63;;
20298;SDS011;10308;42.688;23.256;2023-03-03T06:15:19;8.60;;;7.90;;
20298;SDS011;10308;42.688;23.256;2023-03-03T06:17:46;8.15;;;7.50;;
20298;SDS011;10308;42.688;23.256;2023-03-03T06:20:13;8.45;;;7.75;;
20298;SDS011;10308;42.688;23.256;2023-03-03T06:22:41;8.52;;;7.75;;
20298;SDS011;10308;42.688;23.256;2023-03-03T06:28:36;8.18;;;7.57;;
20298;SDS011;10308;42.688;23.256;2023-03-03T06:31:02;7.97;;;7.35;;
20298;SDS011;10308;42.688;23.256;2023-03-03T06:33:29;8.23;;;7.53;;
20298;SDS011;10308;42.688;23.256;2023-03-03T06:35:56;8.05;;;7.38;;
20298;SDS011;10308;42.688;23.256;2023-03-03T06:38:25;7.75;;;7.15;;
20298;SDS011;10308;42.688;23.256;2023-03-03T06:40:51;8.02;;;7.32;;
20298;SDS011;10308;42.688;23.256;2023-03-03T06:43:18;8.27;;;7.55;;
20298;SDS011;10308;42.688;23.256;2023-03-03T06:45:45;7.45;;;6.85;;
20298;SDS011;10308;42.688;23.256;2023-03-03T06:48:12;7.93;;;7.22;;
20298;SDS011;10308;42.688;23.256;2023-03-03T06:50:39;8.10;;;7.40;;
20298;SDS011;10308;42.688;23.256;2023-03-03T06:53:09;6.50;;;5.90;;
20298;SDS011;10308;42.688;23.256;2023-03-03T06:55:38;6.90;;;6.40;;
20298;SDS011;10308;42.688;23.256;2023-03-03T06:58:07;7.07;;;6.38;;
20298;SDS011;10308;42.688;23.256;2023-03-03T07:00:39;6.78;;;6.28;;
20298;SDS011;10308;42.688;23.256;2023-03-03T07:03:11;7.47;;;6.78;;
20298;SDS011;10308;42.688;23.256;2023-03-03T07:05:40;7.28;;;6.68;;
20298;SDS011;10308;42.688;23.256;2023-03-03T07:08:09;7.47;;;6.82;;
20298;SDS011;10308;42.688;23.256;2023-03-03T07:10:41;7.20;;;6.60;;
20298;SDS011;10308;42.688;23.256;2023-03-03T07:13:18;7.15;;;6.57;;
20298;SDS011;10308;42.688;23.256;2023-03-03T08:44:31;7.10;;;6.57;;
20298;SDS011;10308;42.688;23.256;2023-03-03T08:46:58;7.65;;;7.05;;
20298;SDS011;10308;42.688;23.256;2023-03-03T08:53:05;8.18;;;7.50;;
20298;SDS011;10308;42.688;23.256;2023-03-03T08:55:32;7.07;;;6.47;;
20298;SDS011;10308;42.688;23.256;2023-03-03T08:58:01;7.30;;;6.70;;
20298;SDS011;10308;42.688;23.256;2023-03-03T09:00:28;6.88;;;6.38;;
20298;SDS011;10308;42.688;23.256;2023-03-03T09:02:54;7.68;;;7.18;;
20298;SDS011;10308;42.688;23.256;2023-03-03T09:05:21;7.82;;;7.13;;
20298;SDS011;10308;42.688;23.256;2023-03-03T09:07:49;7.43;;;6.93;;
20298;SDS011;10308;42.688;23.256;2023-03-03T09:10:17;7.93;;;7.32;;
20298;SDS011;10308;42.688;23.256;2023-03-03T09:12:47;7.70;;;7.10;;
20298;SDS011;10308;42.688;23.256;2023-03-03T09:15:17;7.95;;;7.28;;
20298;SDS011;10308;42.688;23.256;2023-03-03T09:17:46;9.00;;;8.30;;
20298;SDS011;10308;42.688;23.256;2023-03-03T09:20:21;8.90;;;8.10;;
20298;SDS011;10308;42.688;23.256;2023-03-03T09:22:49;8.73;;;8.02;;
20298;SDS011;10308;42.688;23.256;2023-03-03T09:25:19;9.57;;;8.77;;
20298;SDS011;10308;42.688;23.256;2023-03-03T09:27:48;10.02;;;9.20;;
20298;SDS011;10308;42.688;23.256;2023-03-03T09:30:26;9.15;;;8.38;;
20298;SDS011;10308;42.688;23.256;2023-03-03T09:32:56;9.32;;;8.52;;
20298;SDS011;10308;42.688;23.256;2023-03-03T09:35:33;8.93;;;8.13;;
20298;SDS011;10308;42.688;23.256;2023-03-03T09:38:01;9.50;;;8.75;;
20298;SDS011;10308;42.688;23.256;2023-03-03T09:40:44;9.15;;;8.43;;
20298;SDS011;10308;42.688;23.256;2023-03-03T09:43:18;8.80;;;8.10;;
20298;SDS011;10308;42.688;23.256;2023-03-03T09:45:55;9.43;;;8.65;;
20298;SDS011;10308;42.688;23.256;2023-03-03T09:51:09;9.55;;;8.75;;
20298;SDS011;10308;42.688;23.256;2023-03-03T09:53:44;9.70;;;8.90;;
20298;SDS011;10308;42.688;23.256;2023-03-03T09:56:21;10.18;;;9.38;;
20298;SDS011;10308;42.688;23.256;2023-03-03T09:58:52;9.43;;;8.73;;
20298;SDS011;10308;42.688;23.256;2023-03-03T10:01:45;12.77;;;11.57;;
20298;SDS011;10308;42.688;23.256;2023-03-03T10:04:22;12.25;;;11.15;;
20298;SDS011;10308;42.688;23.256;2023-03-03T10:06:54;11.90;;;10.90;;
20298;SDS011;10308;42.688;23.256;2023-03-03T10:09:32;11.23;;;10.32;;
20298;SDS011;10308;42.688;23.256;2023-03-03T10:12:06;11.20;;;10.30;;
20298;SDS011;10308;42.688;23.256;2023-03-03T10:14:40;11.48;;;10.48;;
20298;SDS011;10308;42.688;23.256;2023-03-03T10:17:30;12.73;;;11.73;;
20298;SDS011;10308;42.688;23.256;2023-03-03T10:22:52;12.93;;;11.93;;
20298;SDS011;10308;42.688;23.256;2023-03-03T10:25:24;13.57;;;12.57;;
20298;SDS011;10308;42.688;23.256;2023-03-03T10:27:57;14.10;;;13.00;;
20298;SDS011;10308;42.688;23.256;2023-03-03T10:30:42;15.27;;;14.07;;
20298;SDS011;10308;42.688;23.256;2023-03-03T10:33:16;19.42;;;17.83;;
20298;SDS011;10308;42.688;23.256;2023-03-03T10:36:06;19.08;;;17.38;;
20298;SDS011;10308;42.688;23.256;2023-03-03T10:38:54;18.70;;;17.10;;
20298;SDS011;10308;42.688;23.256;2023-03-03T10:41:42;19.20;;;17.60;;
20298;SDS011;10308;42.688;23.256;2023-03-03T10:44:35;19.73;;;17.92;;
20298;SDS011;10308;42.688;23.256;2023-03-03T10:47:21;17.73;;;16.15;;
20298;SDS011;10308;42.688;23.256;2023-03-03T10:49:57;15.23;;;14.02;;
20298;SDS011;10308;42.688;23.256;2023-03-03T10:52:30;15.32;;;14.02;;
20298;SDS011;10308;42.688;23.256;2023-03-03T10:55:05;14.00;;;12.90;;
20298;SDS011;10308;42.688;23.256;2023-03-03T10:57:43;13.32;;;12.23;;
20298;SDS011;10308;42.688;23.256;2023-03-03T11:00:20;12.88;;;11.80;;
20298;SDS011;10308;42.688;23.256;2023-03-03T11:02:53;13.15;;;12.05;;
20298;SDS011;10308;42.688;23.256;2023-03-03T11:05:35;13.18;;;12.18;;
20298;SDS011;10308;42.688;23.256;2023-03-03T11:08:06;14.07;;;12.80;;
20298;SDS011;10308;42.688;23.256;2023-03-03T11:10:39;15.05;;;13.85;;
20298;SDS011;10308;42.688;23.256;2023-03-03T11:13:20;16.27;;;14.77;;
20298;SDS011;10308;42.688;23.256;2023-03-03T11:15:57;14.70;;;13.40;;
20298;SDS011;10308;42.688;23.256;2023-03-03T11:18:55;13.65;;;12.55;;
20298;SDS011;10308;42.688;23.256;2023-03-03T11:21:33;14.30;;;13.10;;
20298;SDS011;10308;42.688;23.256;2023-03-03T11:24:09;13.82;;;12.63;;
20298;SDS011;10308;42.688;23.256;2023-03-03T11:26:44;14.27;;;13.07;;
20298;SDS011;10308;42.688;23.256;2023-03-03T11:29:22;15.27;;;13.98;;
20298;SDS011;10308;42.688;23.256;2023-03-03T11:31:56;16.65;;;15.25;;
20298;SDS011;10308;42.688;23.256;2023-03-03T11:34:31;16.50;;;15.00;;
20298;SDS011;10308;42.688;23.256;2023-03-03T11:37:07;15.00;;;13.77;;
20298;SDS011;10308;42.688;23.256;2023-03-03T11:39:36;14.60;;;13.43;;
20298;SDS011;10308;42.688;23.256;2023-03-03T11:42:06;13.13;;;12.05;;
20298;SDS011;10308;42.688;23.256;2023-03-03T11:44:42;12.85;;;11.75;;
20298;SDS011;10308;42.688;23.256;2023-03-03T11:47:13;13.27;;;12.20;;
20298;SDS011;10308;42.688;23.256;2023-03-03T11:49:46;14.10;;;12.93;;
20298;SDS011;10308;42.688;23.256;2023-03-03T11:52:26;13.23;;;12.23;;
20298;SDS011;10308;42.688;23.256;2023-03-03T11:54:59;14.60;;;13.40;;
20298;SDS011;10308;42.688;23.256;2023-03-03T11:57:28;13.50;;;12.40;;
20298;SDS011;10308;42.688;23.256;2023-03-03T12:00:02;11.77;;;10.80;;
20298;SDS011;10308;42.688;23.256;2023-03-03T12:02:44;11.65;;;10.68;;
20298;SDS011;10308;42.688;23.256;2023-03-03T12:05:40;12.85;;;11.80;;
20298;SDS011;10308;42.688;23.256;2023-03-03T12:08:16;11.98;;;10.98;;
20298;SDS011;10308;42.688;23.256;2023-03-03T12:10:58;9.85;;;9.05;;
20298;SDS011;10308;42.688;23.256;2023-03-03T12:13:29;9.30;;;8.60;;
20298;SDS011;10308;42.688;23.256;2023-03-03T12:16:06;8.90;;;8.30;;
20298;SDS011;10308;42.688;23.256;2023-03-03T12:18:49;9.07;;;8.38;;
20298;SDS011;10308;42.688;23.256;2023-03-03T12:21:33;10.40;;;9.50;;
20298;SDS011;10308;42.688;23.256;2023-03-03T12:24:14;9.35;;;8.55;;
20298;SDS011;10308;42.688;23.256;2023-03-03T12:26:53;8.82;;;8.13;;
20298;SDS011;10308;42.688;23.256;2023-03-03T12:29:30;8.40;;;7.78;;
20298;SDS011;10308;42.688;23.256;2023-03-03T12:32:01;8.15;;;7.55;;
20298;SDS011;10308;42.688;23.256;2023-03-03T12:34:33;8.40;;;7.80;;
20298;SDS011;10308;42.688;23.256;2023-03-03T12:37:12;7.78;;;7.18;;
20298;SDS011;10308;42.688;23.256;2023-03-03T12:39:46;6.85;;;6.25;;
20298;SDS011;10308;42.688;23.256;2023-03-03T12:42:20;5.35;;;4.95;;
20298;SDS011;10308;42.688;23.256;2023-03-03T12:44:53;4.25;;;3.92;;
20298;SDS011;10308;42.688;23.256;2023-03-03T12:47:25;3.10;;;2.90;;
20298;SDS011;10308;42.688;23.256;2023-03-03T12:49:57;2.88;;;2.67;;
20298;SDS011;10308;42.688;23.256;2023-03-03T12:52:30;2.83;;;2.63;;
20298;SDS011;10308;42.688;23.256;2023-03-03T12:55:07;2.63;;;2.53;;
20298;SDS011;10308;42.688;23.256;2023-03-03T12:57:38;3.20;;;3.00;;
20298;SDS011;10308;42.688;23.256;2023-03-03T13:00:21;4.30;;;3.92;;
20298;SDS011;10308;42.688;23.256;2023-03-03T13:02:59;3.35;;;3.15;;
20298;SDS011;10308;42.688;23.256;2023-03-03T13:05:33;2.70;;;2.50;;
20298;SDS011;10308;42.688;23.256;2023-03-03T13:08:16;2.83;;;2.65;;
20298;SDS011;10308;42.688;23.256;2023-03-03T13:10:57;4.05;;;3.75;;
20298;SDS011;10308;42.688;23.256;2023-03-03T13:13:32;3.95;;;3.55;;
20298;SDS011;10308;42.688;23.256;2023-03-03T13:16:03;4.10;;;3.80;;
20298;SDS011;10308;42.688;23.256;2023-03-03T13:18:36;4.10;;;3.80;;
20298;SDS011;10308;42.688;23.256;2023-03-03T13:21:15;4.00;;;3.70;;
20298;SDS011;10308;42.688;23.256;2023-03-03T13:23:47;4.40;;;4.10;;
20298;SDS011;10308;42.688;23.256;2023-03-03T13:26:19;4.03;;;3.72;;
20298;SDS011;10308;42.688;23.256;2023-03-03T13:28:55;4.63;;;4.25;;
20298;SDS011;10308;42.688;23.256;2023-03-03T13:31:27;4.22;;;3.92;;
20298;SDS011;10308;42.688;23.256;2023-03-03T13:33:56;4.20;;;3.90;;
20298;SDS011;10308;42.688;23.256;2023-03-03T13:36:25;4.28;;;3.97;;
20298;SDS011;10308;42.688;23.256;2023-03-03T13:38:58;4.80;;;4.43;;
20298;SDS011;10308;42.688;23.256;2023-03-03T13:41:28;5.22;;;4.82;;
20298;SDS011;10308;42.688;23.256;2023-03-03T13:44:00;5.82;;;5.38;;
20298;SDS011;10308;42.688;23.256;2023-03-03T13:46:32;5.80;;;5.25;;
20298;SDS011;10308;42.688;23.256;2023-03-03T13:49:22;5.90;;;5.32;;
20298;SDS011;10308;42.688;23.256;2023-03-03T13:51:57;6.47;;;5.88;;
20298;SDS011;10308;42.688;23.256;2023-03-03T13:54:32;5.28;;;4.88;;
20298;SDS011;10308;42.688;23.256;2023-03-03T13:57:13;4.78;;;4.38;;
20298;SDS011;10308;42.688;23.256;2023-03-03T13:59:56;5.00;;;4.60;;
20298;SDS011;10308;42.688;23.256;2023-03-03T14:05:35;3.78;;;3.47;;
20298;SDS011;10308;42.688;23.256;2023-03-03T14:08:06;4.60;;;4.20;;
20298;SDS011;10308;42.688;23.256;2023-03-03T14:10:39;3.60;;;3.35;;
20298;SDS011;10308;42.688;23.256;2023-03-03T14:13:10;12.07;;;9.48;;
20298;SDS011;10308;42.688;23.256;2023-03-03T14:15:42;7.03;;;6.43;;
20298;SDS011;10308;42.688;23.256;2023-03-03T14:18:17;5.78;;;5.38;;
20298;SDS011;10308;42.688;23.256;2023-03-03T14:20:50;6.18;;;5.78;;
20298;SDS011;10308;42.688;23.256;2023-03-03T14:23:19;7.00;;;6.50;;
20298;SDS011;10308;42.688;23.256;2023-03-03T14:25:53;6.20;;;5.70;;
20298;SDS011;10308;42.688;23.256;2023-03-03T14:28:26;6.47;;;5.90;;
20298;SDS011;10308;42.688;23.256;2023-03-03T14:30:54;4.88;;;4.47;;
20298;SDS011;10308;42.688;23.256;2023-03-03T14:33:25;3.38;;;3.17;;
20298;SDS011;10308;42.688;23.256;2023-03-03T14:36:05;4.07;;;3.78;;
20298;SDS011;10308;42.688;23.256;2023-03-03T14:38:42;3.72;;;3.42;;
20298;SDS011;10308;42.688;23.256;2023-03-03T14:41:15;4.13;;;3.83;;
20298;SDS011;10308;42.688;23.256;2023-03-03T14:43:45;4.65;;;4.35;;
20298;SDS011;10308;42.688;23.256;2023-03-03T14:46:30;4.68;;;4.28;;
20298;SDS011;10308;42.688;23.256;2023-03-03T14:49:12;4.10;;;3.80;;
20298;SDS011;10308;42.688;23.256;2023-03-03T14:51:41;4.32;;;4.03;;
20298;SDS011;10308;42.688;23.256;2023-03-03T14:54:14;7.85;;;7.25;;
20298;SDS011;10308;42.688;23.256;2023-03-03T14:59:39;4.47;;;4.07;;
20298;SDS011;10308;42.688;23.256;2023-03-03T15:02:28;8.20;;;7.40;;
20298;SDS011;10308;42.688;23.256;2023-03-03T15:05:16;9.50;;;8.80;;
20298;SDS011;10308;42.688;23.256;2023-03-03T15:07:45;6.60;;;6.10;;
20298;SDS011;10308;42.688;23.256;2023-03-03T15:10:15;5.85;;;5.35;;
20298;SDS011;10308;42.688;23.256;2023-03-03T15:12:53;5.05;;;4.65;;
20298;SDS011;10308;42.688;23.256;2023-03-03T15:15:21;5.85;;;5.25;;
20298;SDS011;10308;42.688;23.256;2023-03-03T15:17:53;6.00;;;5.50;;
20298;SDS011;10308;42.688;23.256;2023-03-03T15:20:29;6.57;;;6.07;;
20298;SDS011;10308;42.688;23.256;2023-03-03T15:23:04;5.90;;;5.30;;
20298;SDS011;10308;42.688;23.256;2023-03-03T15:25:51;5.72;;;5.22;;
20298;SDS011;10308;42.688;23.256;2023-03-03T15:28:29;5.35;;;4.95;;
20298;SDS011;10308;42.688;23.256;2023-03-03T15:31:06;4.85;;;4.45;;
20298;SDS011;10308;42.688;23.256;2023-03-03T15:33:37;4.95;;;4.55;;
20298;SDS011;10308;42.688;23.256;2023-03-03T15:36:10;4.82;;;4.53;;
20298;SDS011;10308;42.688;23.256;2023-03-03T15:38:45;5.30;;;4.90;;
20298;SDS011;10308;42.688;23.256;2023-03-03T15:41:29;6.20;;;5.70;;
20298;SDS011;10308;42.688;23.256;2023-03-03T15:44:14;5.43;;;4.95;;
20298;SDS011;10308;42.688;23.256;2023-03-03T15:46:48;4.97;;;4.57;;
20298;SDS011;10308;42.688;23.256;2023-03-03T15:49:25;5.45;;;5.05;;
20298;SDS011;10308;42.688;23.256;2023-03-03T15:52:05;5.85;;;5.45;;
20298;SDS011;10308;42.688;23.256;2023-03-03T15:54:48;5.20;;;4.70;;
20298;SDS011;10308;42.688;23.256;2023-03-03T15:57:20;4.70;;;4.40;;
20298;SDS011;10308;42.688;23.256;2023-03-03T15:59:58;5.75;;;5.35;;
20298;SDS011;10308;42.688;23.256;2023-03-03T16:02:54;5.38;;;4.97;;
20298;SDS011;10308;42.688;23.256;2023-03-03T16:05:23;6.00;;;5.60;;
20298;SDS011;10308;42.688;23.256;2023-03-03T16:07:57;6.25;;;5.68;;
20298;SDS011;10308;42.688;23.256;2023-03-03T16:10:28;4.82;;;4.43;;
20298;SDS011;10308;42.688;23.256;2023-03-03T16:13:04;6.45;;;5.93;;
20298;SDS011;10308;42.688;23.256;2023-03-03T16:15:45;6.00;;;5.60;;
20298;SDS011;10308;42.688;23.256;2023-03-03T16:18:20;5.95;;;5.55;;
20298;SDS011;10308;42.688;23.256;2023-03-03T16:20:51;6.85;;;6.20;;
20298;SDS011;10308;42.688;23.256;2023-03-03T16:23:29;6.28;;;5.78;;
20298;SDS011;10308;42.688;23.256;2023-03-03T16:26:09;8.02;;;7.43;;
20298;SDS011;10308;42.688;23.256;2023-03-03T16:28:50;8.15;;;7.45;;
20298;SDS011;10308;42.688;23.256;2023-03-03T16:31:23;7.60;;;7.00;;
20298;SDS011;10308;42.688;23.256;2023-03-03T16:33:57;6.15;;;5.65;;
20298;SDS011;10308;42.688;23.256;2023-03-03T16:36:28;6.72;;;6.13;;
20298;SDS011;10308;42.688;23.256;2023-03-03T16:39:00;12.30;;;6.20;;
20298;SDS011;10308;42.688;23.256;2023-03-03T16:41:33;6.90;;;6.32;;
20298;SDS011;10308;42.688;23.256;2023-03-03T16:44:07;6.80;;;6.20;;
20298;SDS011;10308;42.688;23.256;2023-03-03T16:46:42;8.32;;;7.50;;
20298;SDS011;10308;42.688;23.256;2023-03-03T16:49:14;9.40;;;8.52;;
20298;SDS011;10308;42.688;23.256;2023-03-03T16:51:46;9.82;;;9.02;;